sensor_id;sensor_type;location;lat;lon;timestamp;temperature;humidity
40758;DHT22;26462;47.384;19.218;2023-03-31T00:00:46;10.30;99.90
40758;DHT22;26462;47.384;19.218;2023-03-31T00:03:17;10.40;99.90
40758;DHT22;26462;47.384;19.218;2023-03-31T00:05:48;10.30;99.90
40758;DHT22;26462;47.384;19.218;2023-03-31T00:08:19;10.30;99.90
40758;DHT22;26462;47.384;19.218;2023-03-31T00:10:47;10.40;99.90
40758;DHT22;26462;47.384;19.218;2023-03-31T00:13:16;10.30;99.90
40758;DHT22;26462;47.384;19.218;2023-03-31T00:15:43;10.30;99.90
40758;DHT22;26462;47.384;19.218;2023-03-31T00:18:10;10.30;99.90
40758;DHT22;26462;47.384;19.218;2023-03-31T00:20:37;10.30;99.90
40758;DHT22;26462;47.384;19.218;2023-03-31T00:23:08;10.30;99.90
40758;DHT22;26462;47.384;19.218;2023-03-31T00:25:40;10.30;99.90
40758;DHT22;26462;47.384;19.218;2023-03-31T00:28:09;10.30;99.90
40758;DHT22;26462;47.384;19.218;2023-03-31T00:30:36;10.20;99.90
40758;DHT22;26462;47.384;19.218;2023-03-31T00:33:03;10.30;99.90
40758;DHT22;26462;47.384;19.218;2023-03-31T00:35:31;10.30;99.90
40758;DHT22;26462;47.384;19.218;2023-03-31T00:38:01;10.30;99.90
40758;DHT22;26462;47.384;19.218;2023-03-31T00:40:28;10.30;99.90
40758;DHT22;26462;47.384;19.218;2023-03-31T00:42:55;10.30;99.90
40758;DHT22;26462;47.384;19.218;2023-03-31T00:45:25;10.20;99.90
40758;DHT22;26462;47.384;19.218;2023-03-31T00:47:59;10.20;99.90
40758;DHT22;26462;47.384;19.218;2023-03-31T00:50:36;10.20;99.90
40758;DHT22;26462;47.384;19.218;2023-03-31T00:53:11;10.20;99.90
40758;DHT22;26462;47.384;19.218;2023-03-31T00:55:46;10.10;99.90
40758;DHT22;26462;47.384;19.218;2023-03-31T00:58:15;10.10;99.90
40758;DHT22;26462;47.384;19.218;2023-03-31T01:00:49;10.10;99.90
40758;DHT22;26462;47.384;19.218;2023-03-31T01:03:18;10.00;99.90
40758;DHT22;26462;47.384;19.218;2023-03-31T01:05:52;10.00;99.90
40758;DHT22;26462;47.384;19.218;2023-03-31T01:08:22;10.00;99.90
40758;DHT22;26462;47.384;19.218;2023-03-31T01:10:53;10.00;99.90
40758;DHT22;26462;47.384;19.218;2023-03-31T01:13:21;10.00;99.90
40758;DHT22;26462;47.384;19.218;2023-03-31T01:15:49;9.90;99.90
40758;DHT22;26462;47.384;19.218;2023-03-31T01:18:17;9.90;99.90
40758;DHT22;26462;47.384;19.218;2023-03-31T01:29:40;9.80;99.90
40758;DHT22;26462;47.384;19.218;2023-03-31T01:40:50;9.80;99.90
40758;DHT22;26462;47.384;19.218;2023-03-31T01:46:23;9.70;99.90
40758;DHT22;26462;47.384;19.218;2023-03-31T01:51:51;9.70;99.90
40758;DHT22;26462;47.384;19.218;2023-03-31T02:00:00;9.70;99.90
40758;DHT22;26462;47.384;19.218;2023-03-31T02:05:14;9.60;99.90
40758;DHT22;26462;47.384;19.218;2023-03-31T02:08:14;9.50;99.90
40758;DHT22;26462;47.384;19.218;2023-03-31T02:10:42;9.50;99.90
40758;DHT22;26462;47.384;19.218;2023-03-31T02:13:12;9.50;99.90
40758;DHT22;26462;47.384;19.218;2023-03-31T02:15:44;9.50;99.90
40758;DHT22;26462;47.384;19.218;2023-03-31T02:18:16;9.50;99.90
40758;DHT22;26462;47.384;19.218;2023-03-31T02:20:48;9.50;99.90
40758;DHT22;26462;47.384;19.218;2023-03-31T02:23:19;9.50;99.90
40758;DHT22;26462;47.384;19.218;2023-03-31T02:25:50;9.40;99.90
40758;DHT22;26462;47.384;19.218;2023-03-31T02:28:24;9.40;99.90
40758;DHT22;26462;47.384;19.218;2023-03-31T02:33:50;9.40;99.90
40758;DHT22;26462;47.384;19.218;2023-03-31T02:36:18;9.30;99.90
40758;DHT22;26462;47.384;19.218;2023-03-31T02:38:49;9.30;99.90
40758;DHT22;26462;47.384;19.218;2023-03-31T02:41:18;9.30;99.90
40758;DHT22;26462;47.384;19.218;2023-03-31T02:43:45;9.20;99.90
40758;DHT22;26462;47.384;19.218;2023-03-31T02:46:12;9.20;99.90
40758;DHT22;26462;47.384;19.218;2023-03-31T02:48:43;9.20;99.90
40758;DHT22;26462;47.384;19.218;2023-03-31T03:00:02;9.10;99.90
40758;DHT22;26462;47.384;19.218;2023-03-31T03:11:54;9.10;99.90
40758;DHT22;26462;47.384;19.218;2023-03-31T03:17:26;9.10;99.90
40758;DHT22;26462;47.384;19.218;2023-03-31T03:19:59;9.00;99.90
40758;DHT22;26462;47.384;19.218;2023-03-31T03:22:26;9.00;99.90
40758;DHT22;26462;47.384;19.218;2023-03-31T03:24:53;8.90;99.90
40758;DHT22;26462;47.384;19.218;2023-03-31T03:27:21;9.00;99.90
40758;DHT22;26462;47.384;19.218;2023-03-31T03:29:48;8.90;99.90
40758;DHT22;26462;47.384;19.218;2023-03-31T03:32:16;8.90;99.90
40758;DHT22;26462;47.384;19.218;2023-03-31T03:34:43;8.90;99.90
40758;DHT22;26462;47.384;19.218;2023-03-31T03:37:10;8.90;99.90
40758;DHT22;26462;47.384;19.218;2023-03-31T03:39:37;10.30;99.90
40758;DHT22;26462;47.384;19.218;2023-03-31T03:42:06;8.80;99.90
40758;DHT22;26462;47.384;19.218;2023-03-31T03:44:34;8.80;99.90
40758;DHT22;26462;47.384;19.218;2023-03-31T03:47:01;8.80;99.90
40758;DHT22;26462;47.384;19.218;2023-03-31T03:49:28;8.70;99.90
40758;DHT22;26462;47.384;19.218;2023-03-31T03:51:55;8.70;99.90
40758;DHT22;26462;47.384;19.218;2023-03-31T03:54:22;8.70;99.90
40758;DHT22;26462;47.384;19.218;2023-03-31T03:56:49;8.70;99.90
40758;DHT22;26462;47.384;19.218;2023-03-31T03:59:17;8.70;99.90
40758;DHT22;26462;47.384;19.218;2023-03-31T04:01:44;8.70;99.90
40758;DHT22;26462;47.384;19.218;2023-03-31T04:04:11;8.70;99.90
40758;DHT22;26462;47.384;19.218;2023-03-31T04:06:38;8.60;99.90
40758;DHT22;26462;47.384;19.218;2023-03-31T04:09:05;8.60;99.90
40758;DHT22;26462;47.384;19.218;2023-03-31T04:11:33;8.60;99.90
40758;DHT22;26462;47.384;19.218;2023-03-31T04:14:00;8.60;99.90
40758;DHT22;26462;47.384;19.218;2023-03-31T04:16:27;8.50;99.90
40758;DHT22;26462;47.384;19.218;2023-03-31T04:18:55;8.50;99.90
40758;DHT22;26462;47.384;19.218;2023-03-31T04:21:24;8.40;99.90
40758;DHT22;26462;47.384;19.218;2023-03-31T04:23:53;8.50;99.90
40758;DHT22;26462;47.384;19.218;2023-03-31T04:26:33;8.50;99.90
40758;DHT22;26462;47.384;19.218;2023-03-31T04:29:11;8.50;99.90
40758;DHT22;26462;47.384;19.218;2023-03-31T04:31:39;8.40;99.90
40758;DHT22;26462;47.384;19.218;2023-03-31T04:34:14;8.40;99.90
40758;DHT22;26462;47.384;19.218;2023-03-31T04:36:45;8.50;99.90
40758;DHT22;26462;47.384;19.218;2023-03-31T04:39:17;8.40;99.90
40758;DHT22;26462;47.384;19.218;2023-03-31T04:41:44;8.40;99.90
40758;DHT22;26462;47.384;19.218;2023-03-31T04:44:11;8.40;99.90
40758;DHT22;26462;47.384;19.218;2023-03-31T04:46:38;8.40;99.90
40758;DHT22;26462;47.384;19.218;2023-03-31T04:49:06;8.30;99.90
40758;DHT22;26462;47.384;19.218;2023-03-31T04:51:33;8.30;99.90
40758;DHT22;26462;47.384;19.218;2023-03-31T04:54:00;8.30;99.90
40758;DHT22;26462;47.384;19.218;2023-03-31T04:56:27;8.30;99.90
40758;DHT22;26462;47.384;19.218;2023-03-31T04:58:54;8.30;99.90
40758;DHT22;26462;47.384;19.218;2023-03-31T05:01:21;8.30;99.90
40758;DHT22;26462;47.384;19.218;2023-03-31T05:03:48;8.30;99.90
40758;DHT22;26462;47.384;19.218;2023-03-31T05:06:16;8.30;99.90
40758;DHT22;26462;47.384;19.218;2023-03-31T05:08:43;8.30;99.90
40758;DHT22;26462;47.384;19.218;2023-03-31T05:11:11;8.30;99.90
40758;DHT22;26462;47.384;19.218;2023-03-31T05:13:38;8.30;99.90
40758;DHT22;26462;47.384;19.218;2023-03-31T05:16:06;8.30;99.90
40758;DHT22;26462;47.384;19.218;2023-03-31T05:18:35;8.30;99.90
40758;DHT22;26462;47.384;19.218;2023-03-31T05:21:11;8.30;99.90
40758;DHT22;26462;47.384;19.218;2023-03-31T05:23:39;8.30;99.90
40758;DHT22;26462;47.384;19.218;2023-03-31T05:26:07;8.40;99.90
40758;DHT22;26462;47.384;19.218;2023-03-31T05:28:35;8.40;99.90
40758;DHT22;26462;47.384;19.218;2023-03-31T05:31:03;8.50;99.90
40758;DHT22;26462;47.384;19.218;2023-03-31T05:33:31;8.50;99.90
40758;DHT22;26462;47.384;19.218;2023-03-31T05:35:59;8.50;99.90
40758;DHT22;26462;47.384;19.218;2023-03-31T05:38:26;8.50;99.90
40758;DHT22;26462;47.384;19.218;2023-03-31T05:40:57;8.60;99.90
40758;DHT22;26462;47.384;19.218;2023-03-31T05:43:24;8.60;99.90
40758;DHT22;26462;47.384;19.218;2023-03-31T05:45:51;8.70;99.90
40758;DHT22;26462;47.384;19.218;2023-03-31T05:48:19;8.70;99.90
40758;DHT22;26462;47.384;19.218;2023-03-31T05:50:47;8.80;99.90
40758;DHT22;26462;47.384;19.218;2023-03-31T05:53:14;8.80;99.90
40758;DHT22;26462;47.384;19.218;2023-03-31T05:55:41;9.00;99.90
40758;DHT22;26462;47.384;19.218;2023-03-31T05:58:08;9.10;99.90
40758;DHT22;26462;47.384;19.218;2023-03-31T06:00:36;9.10;99.90
40758;DHT22;26462;47.384;19.218;2023-03-31T06:03:03;9.20;99.90
40758;DHT22;26462;47.384;19.218;2023-03-31T06:05:34;9.30;99.90
40758;DHT22;26462;47.384;19.218;2023-03-31T06:08:01;9.40;99.90
40758;DHT22;26462;47.384;19.218;2023-03-31T06:10:29;9.60;99.90
40758;DHT22;26462;47.384;19.218;2023-03-31T06:12:56;9.70;99.90
40758;DHT22;26462;47.384;19.218;2023-03-31T06:15:23;9.70;99.90
40758;DHT22;26462;47.384;19.218;2023-03-31T06:17:50;9.80;99.90
40758;DHT22;26462;47.384;19.218;2023-03-31T06:20:18;9.80;99.90
40758;DHT22;26462;47.384;19.218;2023-03-31T06:22:54;9.90;99.90
40758;DHT22;26462;47.384;19.218;2023-03-31T06:25:21;10.10;99.90
40758;DHT22;26462;47.384;19.218;2023-03-31T06:27:48;10.20;99.90
40758;DHT22;26462;47.384;19.218;2023-03-31T06:30:16;10.30;99.90
40758;DHT22;26462;47.384;19.218;2023-03-31T06:32:43;10.50;99.90
40758;DHT22;26462;47.384;19.218;2023-03-31T06:35:10;10.60;99.90
40758;DHT22;26462;47.384;19.218;2023-03-31T06:37:37;10.80;99.90
40758;DHT22;26462;47.384;19.218;2023-03-31T06:40:05;10.80;99.90
40758;DHT22;26462;47.384;19.218;2023-03-31T06:42:33;11.00;99.90
40758;DHT22;26462;47.384;19.218;2023-03-31T06:45:00;11.10;99.90
40758;DHT22;26462;47.384;19.218;2023-03-31T06:47:27;11.20;99.90
40758;DHT22;26462;47.384;19.218;2023-03-31T06:49:55;11.30;99.90
40758;DHT22;26462;47.384;19.218;2023-03-31T06:52:22;11.40;99.90
40758;DHT22;26462;47.384;19.218;2023-03-31T06:54:49;11.60;99.90
40758;DHT22;26462;47.384;19.218;2023-03-31T06:57:16;11.60;99.90
40758;DHT22;26462;47.384;19.218;2023-03-31T06:59:43;11.70;99.90
40758;DHT22;26462;47.384;19.218;2023-03-31T07:02:10;11.80;99.90
40758;DHT22;26462;47.384;19.218;2023-03-31T07:04:37;11.80;99.90
40758;DHT22;26462;47.384;19.218;2023-03-31T07:07:04;11.90;99.90
40758;DHT22;26462;47.384;19.218;2023-03-31T07:09:31;12.00;99.90
40758;DHT22;26462;47.384;19.218;2023-03-31T07:11:59;12.10;99.90
40758;DHT22;26462;47.384;19.218;2023-03-31T07:14:26;12.20;99.90
40758;DHT22;26462;47.384;19.218;2023-03-31T07:16:53;12.30;99.90
40758;DHT22;26462;47.384;19.218;2023-03-31T07:19:20;12.40;99.90
40758;DHT22;26462;47.384;19.218;2023-03-31T07:21:48;12.40;99.90
40758;DHT22;26462;47.384;19.218;2023-03-31T07:24:15;12.60;99.90
40758;DHT22;26462;47.384;19.218;2023-03-31T07:26:43;12.70;99.90
40758;DHT22;26462;47.384;19.218;2023-03-31T07:29:10;12.70;99.90
40758;DHT22;26462;47.384;19.218;2023-03-31T07:31:37;12.90;99.90
40758;DHT22;26462;47.384;19.218;2023-03-31T07:34:04;12.90;99.90
40758;DHT22;26462;47.384;19.218;2023-03-31T07:36:32;12.80;99.90
40758;DHT22;26462;47.384;19.218;2023-03-31T07:38:59;12.80;99.90
40758;DHT22;26462;47.384;19.218;2023-03-31T07:41:26;13.00;99.90
40758;DHT22;26462;47.384;19.218;2023-03-31T07:43:53;13.10;99.90
40758;DHT22;26462;47.384;19.218;2023-03-31T07:46:23;13.20;99.90
40758;DHT22;26462;47.384;19.218;2023-03-31T07:48:51;13.30;99.90
40758;DHT22;26462;47.384;19.218;2023-03-31T07:51:21;13.40;99.90
40758;DHT22;26462;47.384;19.218;2023-03-31T07:53:49;13.40;99.90
40758;DHT22;26462;47.384;19.218;2023-03-31T07:56:20;13.50;99.90
40758;DHT22;26462;47.384;19.218;2023-03-31T07:58:48;13.60;99.90
40758;DHT22;26462;47.384;19.218;2023-03-31T08:01:20;13.80;99.90
40758;DHT22;26462;47.384;19.218;2023-03-31T08:03:47;13.80;99.90
40758;DHT22;26462;47.384;19.218;2023-03-31T08:06:19;13.90;99.90
40758;DHT22;26462;47.384;19.218;2023-03-31T08:08:48;13.90;99.90
40758;DHT22;26462;47.384;19.218;2023-03-31T08:11:16;14.10;99.90
40758;DHT22;26462;47.384;19.218;2023-03-31T08:13:44;14.10;99.90
40758;DHT22;26462;47.384;19.218;2023-03-31T08:16:11;14.20;99.90
40758;DHT22;26462;47.384;19.218;2023-03-31T08:18:38;14.10;99.90
40758;DHT22;26462;47.384;19.218;2023-03-31T08:21:06;14.30;99.90
40758;DHT22;26462;47.384;19.218;2023-03-31T08:23:34;14.60;99.90
40758;DHT22;26462;47.384;19.218;2023-03-31T08:26:17;14.60;99.90
40758;DHT22;26462;47.384;19.218;2023-03-31T08:28:45;14.60;99.90
40758;DHT22;26462;47.384;19.218;2023-03-31T08:31:16;14.70;99.90
40758;DHT22;26462;47.384;19.218;2023-03-31T08:33:46;14.80;99.90
40758;DHT22;26462;47.384;19.218;2023-03-31T08:36:13;14.90;99.90
40758;DHT22;26462;47.384;19.218;2023-03-31T08:38:42;15.00;99.90
40758;DHT22;26462;47.384;19.218;2023-03-31T08:41:29;15.00;99.90
40758;DHT22;26462;47.384;19.218;2023-03-31T08:44:05;15.10;99.90
40758;DHT22;26462;47.384;19.218;2023-03-31T08:46:35;15.10;99.90
40758;DHT22;26462;47.384;19.218;2023-03-31T08:49:03;15.30;99.90
40758;DHT22;26462;47.384;19.218;2023-03-31T08:51:39;15.40;99.90
40758;DHT22;26462;47.384;19.218;2023-03-31T08:55:03;15.50;99.90
40758;DHT22;26462;47.384;19.218;2023-03-31T08:57:24;16.60;99.90
40758;DHT22;26462;47.384;19.218;2023-03-31T08:59:53;15.40;99.90
40758;DHT22;26462;47.384;19.218;2023-03-31T09:05:22;15.60;99.90
40758;DHT22;26462;47.384;19.218;2023-03-31T09:10:38;15.70;99.90
40758;DHT22;26462;47.384;19.218;2023-03-31T09:13:21;16.00;99.90
40758;DHT22;26462;47.384;19.218;2023-03-31T09:16:01;15.90;99.90
40758;DHT22;26462;47.384;19.218;2023-03-31T09:18:34;15.90;99.70
40758;DHT22;26462;47.384;19.218;2023-03-31T09:21:25;16.00;99.10
40758;DHT22;26462;47.384;19.218;2023-03-31T09:23:58;16.00;96.80
40758;DHT22;26462;47.384;19.218;2023-03-31T09:26:50;16.00;97.30
40758;DHT22;26462;47.384;19.218;2023-03-31T09:32:21;16.20;99.80
40758;DHT22;26462;47.384;19.218;2023-03-31T09:34:51;16.30;99.90
40758;DHT22;26462;47.384;19.218;2023-03-31T09:37:20;16.40;97.80
40758;DHT22;26462;47.384;19.218;2023-03-31T09:39:48;16.40;99.00
40758;DHT22;26462;47.384;19.218;2023-03-31T09:42:16;16.60;98.60
40758;DHT22;26462;47.384;19.218;2023-03-31T09:44:46;16.80;98.40
40758;DHT22;26462;47.384;19.218;2023-03-31T09:49:53;16.70;97.30
40758;DHT22;26462;47.384;19.218;2023-03-31T09:52:30;16.70;96.00
40758;DHT22;26462;47.384;19.218;2023-03-31T09:55:05;16.70;94.80
40758;DHT22;26462;47.384;19.218;2023-03-31T09:57:37;16.90;95.30
40758;DHT22;26462;47.384;19.218;2023-03-31T10:00:15;16.80;93.70
40758;DHT22;26462;47.384;19.218;2023-03-31T10:02:51;16.90;94.90
40758;DHT22;26462;47.384;19.218;2023-03-31T10:08:51;17.00;94.90
40758;DHT22;26462;47.384;19.218;2023-03-31T10:11:16;17.30;94.60
40758;DHT22;26462;47.384;19.218;2023-03-31T10:13:54;17.30;94.10
40758;DHT22;26462;47.384;19.218;2023-03-31T10:21:46;17.00;93.80
40758;DHT22;26462;47.384;19.218;2023-03-31T10:24:17;16.90;92.70
40758;DHT22;26462;47.384;19.218;2023-03-31T10:26:51;17.20;93.40
40758;DHT22;26462;47.384;19.218;2023-03-31T10:29:30;17.40;92.10
40758;DHT22;26462;47.384;19.218;2023-03-31T10:32:20;17.30;91.10
40758;DHT22;26462;47.384;19.218;2023-03-31T10:34:49;17.00;91.50
40758;DHT22;26462;47.384;19.218;2023-03-31T10:37:18;16.80;92.50
40758;DHT22;26462;47.384;19.218;2023-03-31T10:39:59;16.80;93.30
40758;DHT22;26462;47.384;19.218;2023-03-31T10:42:27;16.90;93.20
40758;DHT22;26462;47.384;19.218;2023-03-31T10:45:13;16.70;92.90
40758;DHT22;26462;47.384;19.218;2023-03-31T10:48:02;17.00;93.50
40758;DHT22;26462;47.384;19.218;2023-03-31T10:50:33;17.00;93.30
40758;DHT22;26462;47.384;19.218;2023-03-31T10:53:10;17.10;94.50
40758;DHT22;26462;47.384;19.218;2023-03-31T10:55:55;16.90;94.30
40758;DHT22;26462;47.384;19.218;2023-03-31T11:07:39;17.60;92.70
40758;DHT22;26462;47.384;19.218;2023-03-31T11:10:29;17.60;91.20
40758;DHT22;26462;47.384;19.218;2023-03-31T11:15:39;17.90;93.10
40758;DHT22;26462;47.384;19.218;2023-03-31T11:26:14;18.40;89.50
40758;DHT22;26462;47.384;19.218;2023-03-31T11:29:05;18.50;90.40
40758;DHT22;26462;47.384;19.218;2023-03-31T11:32:04;18.50;88.80
40758;DHT22;26462;47.384;19.218;2023-03-31T11:37:30;17.80;90.60
40758;DHT22;26462;47.384;19.218;2023-03-31T11:42:53;17.60;91.90
40758;DHT22;26462;47.384;19.218;2023-03-31T11:46:03;17.80;91.60
40758;DHT22;26462;47.384;19.218;2023-03-31T11:48:44;17.70;90.50
40758;DHT22;26462;47.384;19.218;2023-03-31T11:54:28;17.90;90.30
40758;DHT22;26462;47.384;19.218;2023-03-31T11:57:04;18.10;90.60
40758;DHT22;26462;47.384;19.218;2023-03-31T11:59:33;18.10;85.70
40758;DHT22;26462;47.384;19.218;2023-03-31T12:02:39;18.10;87.00
40758;DHT22;26462;47.384;19.218;2023-03-31T12:05:11;18.00;88.10
40758;DHT22;26462;47.384;19.218;2023-03-31T12:08:11;18.00;87.70
40758;DHT22;26462;47.384;19.218;2023-03-31T12:10:51;18.20;86.20
40758;DHT22;26462;47.384;19.218;2023-03-31T12:13:40;18.40;88.60
40758;DHT22;26462;47.384;19.218;2023-03-31T12:16:12;18.90;86.70
40758;DHT22;26462;47.384;19.218;2023-03-31T12:19:05;18.90;86.70
40758;DHT22;26462;47.384;19.218;2023-03-31T12:21:34;18.70;88.90
40758;DHT22;26462;47.384;19.218;2023-03-31T12:24:03;18.40;87.30
40758;DHT22;26462;47.384;19.218;2023-03-31T12:26:43;18.30;86.90
40758;DHT22;26462;47.384;19.218;2023-03-31T12:32:02;18.30;86.30
40758;DHT22;26462;47.384;19.218;2023-03-31T12:34:30;18.40;86.60
40758;DHT22;26462;47.384;19.218;2023-03-31T12:54:27;18.60;85.80
40758;DHT22;26462;47.384;19.218;2023-03-31T12:59:35;19.00;84.50
40758;DHT22;26462;47.384;19.218;2023-03-31T13:04:36;18.80;82.30
40758;DHT22;26462;47.384;19.218;2023-03-31T13:07:11;19.00;84.90
40758;DHT22;26462;47.384;19.218;2023-03-31T13:10:00;19.40;84.20
40758;DHT22;26462;47.384;19.218;2023-03-31T13:13:12;19.80;82.20
40758;DHT22;26462;47.384;19.218;2023-03-31T13:15:55;19.30;82.30
40758;DHT22;26462;47.384;19.218;2023-03-31T13:18:23;19.00;85.40
40758;DHT22;26462;47.384;19.218;2023-03-31T13:20:59;18.80;84.30
40758;DHT22;26462;47.384;19.218;2023-03-31T13:23:35;18.50;83.40
40758;DHT22;26462;47.384;19.218;2023-03-31T13:26:03;18.40;84.50
40758;DHT22;26462;47.384;19.218;2023-03-31T13:34:33;18.20;85.90
40758;DHT22;26462;47.384;19.218;2023-03-31T13:43:16;18.80;84.00
40758;DHT22;26462;47.384;19.218;2023-03-31T13:50:57;18.50;81.60
40758;DHT22;26462;47.384;19.218;2023-03-31T14:02:32;18.30;83.90
40758;DHT22;26462;47.384;19.218;2023-03-31T14:10:36;18.00;84.20
40758;DHT22;26462;47.384;19.218;2023-03-31T14:13:14;18.00;84.70
40758;DHT22;26462;47.384;19.218;2023-03-31T14:15:48;18.00;84.60
40758;DHT22;26462;47.384;19.218;2023-03-31T14:18:25;17.90;84.70
40758;DHT22;26462;47.384;19.218;2023-03-31T14:34:35;18.60;83.10
40758;DHT22;26462;47.384;19.218;2023-03-31T14:37:08;18.60;81.90
40758;DHT22;26462;47.384;19.218;2023-03-31T14:39:50;18.50;82.50
40758;DHT22;26462;47.384;19.218;2023-03-31T14:42:21;18.70;82.30
40758;DHT22;26462;47.384;19.218;2023-03-31T14:44:54;18.50;81.90
40758;DHT22;26462;47.384;19.218;2023-03-31T14:47:24;18.20;81.90
40758;DHT22;26462;47.384;19.218;2023-03-31T14:50:12;18.00;82.20
40758;DHT22;26462;47.384;19.218;2023-03-31T14:52:49;18.00;83.50
40758;DHT22;26462;47.384;19.218;2023-03-31T14:55:22;18.10;82.50
40758;DHT22;26462;47.384;19.218;2023-03-31T14:57:55;18.00;81.30
40758;DHT22;26462;47.384;19.218;2023-03-31T15:00:29;17.90;82.20
40758;DHT22;26462;47.384;19.218;2023-03-31T15:02:58;18.00;82.90
40758;DHT22;26462;47.384;19.218;2023-03-31T15:05:28;18.00;82.90
40758;DHT22;26462;47.384;19.218;2023-03-31T15:08:01;18.10;82.70
40758;DHT22;26462;47.384;19.218;2023-03-31T15:10:34;18.00;81.50
40758;DHT22;26462;47.384;19.218;2023-03-31T15:13:39;17.90;81.60
40758;DHT22;26462;47.384;19.218;2023-03-31T15:16:33;17.70;82.50
40758;DHT22;26462;47.384;19.218;2023-03-31T15:19:09;17.60;82.90
40758;DHT22;26462;47.384;19.218;2023-03-31T15:21:37;17.50;83.90
40758;DHT22;26462;47.384;19.218;2023-03-31T15:24:05;17.40;83.20
40758;DHT22;26462;47.384;19.218;2023-03-31T15:27:03;17.40;83.90
40758;DHT22;26462;47.384;19.218;2023-03-31T15:29:40;17.50;83.10
40758;DHT22;26462;47.384;19.218;2023-03-31T15:32:14;17.40;83.00
40758;DHT22;26462;47.384;19.218;2023-03-31T15:34:43;17.40;83.80
40758;DHT22;26462;47.384;19.218;2023-03-31T15:37:12;17.30;83.40
40758;DHT22;26462;47.384;19.218;2023-03-31T15:39:44;17.20;82.60
40758;DHT22;26462;47.384;19.218;2023-03-31T15:42:13;17.10;82.40
40758;DHT22;26462;47.384;19.218;2023-03-31T15:44:52;17.00;82.60
40758;DHT22;26462;47.384;19.218;2023-03-31T15:47:23;16.90;82.50
40758;DHT22;26462;47.384;19.218;2023-03-31T15:50:30;16.90;81.10
40758;DHT22;26462;47.384;19.218;2023-03-31T15:52:52;16.80;80.40
40758;DHT22;26462;47.384;19.218;2023-03-31T15:55:24;16.70;82.20
40758;DHT22;26462;47.384;19.218;2023-03-31T15:57:52;16.70;83.10
40758;DHT22;26462;47.384;19.218;2023-03-31T16:00:46;16.60;83.50
40758;DHT22;26462;47.384;19.218;2023-03-31T16:05:55;16.60;84.20
40758;DHT22;26462;47.384;19.218;2023-03-31T16:08:47;16.70;84.20
40758;DHT22;26462;47.384;19.218;2023-03-31T16:11:37;16.60;84.50
40758;DHT22;26462;47.384;19.218;2023-03-31T16:14:28;16.50;85.20
40758;DHT22;26462;47.384;19.218;2023-03-31T16:17:10;16.40;84.10
40758;DHT22;26462;47.384;19.218;2023-03-31T16:19:46;16.30;83.80
40758;DHT22;26462;47.384;19.218;2023-03-31T16:22:21;16.20;83.70
40758;DHT22;26462;47.384;19.218;2023-03-31T16:24:49;16.20;83.50
40758;DHT22;26462;47.384;19.218;2023-03-31T16:27:17;16.00;84.30
40758;DHT22;26462;47.384;19.218;2023-03-31T16:29:44;15.90;84.30
40758;DHT22;26462;47.384;19.218;2023-03-31T16:32:14;15.80;85.20
40758;DHT22;26462;47.384;19.218;2023-03-31T16:34:59;15.70;85.40
40758;DHT22;26462;47.384;19.218;2023-03-31T16:37:30;15.60;85.70
40758;DHT22;26462;47.384;19.218;2023-03-31T16:39:58;15.50;86.40
40758;DHT22;26462;47.384;19.218;2023-03-31T16:42:25;15.40;87.10
40758;DHT22;26462;47.384;19.218;2023-03-31T16:44:53;15.40;87.10
40758;DHT22;26462;47.384;19.218;2023-03-31T16:47:23;15.30;87.90
40758;DHT22;26462;47.384;19.218;2023-03-31T16:50:02;15.20;88.40
40758;DHT22;26462;47.384;19.218;2023-03-31T16:52:33;15.20;88.70
40758;DHT22;26462;47.384;19.218;2023-03-31T16:55:01;15.20;88.70
40758;DHT22;26462;47.384;19.218;2023-03-31T16:57:29;15.20;88.90
40758;DHT22;26462;47.384;19.218;2023-03-31T16:59:56;15.10;89.40
40758;DHT22;26462;47.384;19.218;2023-03-31T17:02:24;15.20;90.00
40758;DHT22;26462;47.384;19.218;2023-03-31T17:04:52;15.10;90.20
40758;DHT22;26462;47.384;19.218;2023-03-31T17:07:25;15.00;90.10
40758;DHT22;26462;47.384;19.218;2023-03-31T17:09:52;14.90;90.50
40758;DHT22;26462;47.384;19.218;2023-03-31T17:12:20;14.90;90.60
40758;DHT22;26462;47.384;19.218;2023-03-31T17:14:47;14.90;91.00
40758;DHT22;26462;47.384;19.218;2023-03-31T17:17:14;14.90;91.10
40758;DHT22;26462;47.384;19.218;2023-03-31T17:19:44;14.80;91.10
40758;DHT22;26462;47.384;19.218;2023-03-31T17:22:11;14.70;91.30
40758;DHT22;26462;47.384;19.218;2023-03-31T17:24:39;14.70;91.60
40758;DHT22;26462;47.384;19.218;2023-03-31T17:27:06;14.70;91.10
40758;DHT22;26462;47.384;19.218;2023-03-31T17:29:34;14.60;91.10
40758;DHT22;26462;47.384;19.218;2023-03-31T17:32:02;14.60;91.40
40758;DHT22;26462;47.384;19.218;2023-03-31T17:34:30;14.60;90.90
40758;DHT22;26462;47.384;19.218;2023-03-31T17:36:57;14.50;91.00
40758;DHT22;26462;47.384;19.218;2023-03-31T17:39:26;14.50;91.00
40758;DHT22;26462;47.384;19.218;2023-03-31T17:41:57;14.50;91.20
40758;DHT22;26462;47.384;19.218;2023-03-31T17:44:27;14.40;90.80
40758;DHT22;26462;47.384;19.218;2023-03-31T17:46:55;14.40;91.10
40758;DHT22;26462;47.384;19.218;2023-03-31T17:49:24;14.40;91.00
40758;DHT22;26462;47.384;19.218;2023-03-31T17:51:52;14.30;91.30
40758;DHT22;26462;47.384;19.218;2023-03-31T17:54:20;14.30;91.20
40758;DHT22;26462;47.384;19.218;2023-03-31T17:56:48;13.40;91.00
40758;DHT22;26462;47.384;19.218;2023-03-31T17:59:17;14.30;91.00
40758;DHT22;26462;47.384;19.218;2023-03-31T18:01:46;14.30;91.10
40758;DHT22;26462;47.384;19.218;2023-03-31T18:04:15;14.20;91.30
40758;DHT22;26462;47.384;19.218;2023-03-31T18:06:43;14.10;91.30
40758;DHT22;26462;47.384;19.218;2023-03-31T18:09:11;14.10;91.40
40758;DHT22;26462;47.384;19.218;2023-03-31T18:11:38;14.10;91.90
40758;DHT22;26462;47.384;19.218;2023-03-31T18:14:08;14.10;91.70
40758;DHT22;26462;47.384;19.218;2023-03-31T18:16:35;14.10;91.80
40758;DHT22;26462;47.384;19.218;2023-03-31T18:19:04;14.10;91.60
40758;DHT22;26462;47.384;19.218;2023-03-31T18:21:32;14.10;91.60
40758;DHT22;26462;47.384;19.218;2023-03-31T18:24:01;14.00;91.70
40758;DHT22;26462;47.384;19.218;2023-03-31T18:26:28;14.00;92.20
40758;DHT22;26462;47.384;19.218;2023-03-31T18:28:56;14.00;91.90
40758;DHT22;26462;47.384;19.218;2023-03-31T18:31:25;14.00;92.10
40758;DHT22;26462;47.384;19.218;2023-03-31T18:33:56;13.90;92.30
40758;DHT22;26462;47.384;19.218;2023-03-31T18:36:24;13.90;92.40
40758;DHT22;26462;47.384;19.218;2023-03-31T18:38:55;13.90;92.60
40758;DHT22;26462;47.384;19.218;2023-03-31T18:41:23;13.80;92.70
40758;DHT22;26462;47.384;19.218;2023-03-31T18:43:52;13.80;93.00
40758;DHT22;26462;47.384;19.218;2023-03-31T18:46:22;13.80;93.30